Time;durP1;ratioP1;P1;durP2;ratioP2;P2;SDS_P1;SDS_P2;PMS_P1;PMS_P2;Temp;Humidity;BMP_temperature;BMP_pressure;BME280_temperature;BME280_humidity;BME280_pressure;Samples;Min_cycle;Max_cycle;Signal;HPM_P1;HPM_P2
2022/08/01 00:01:02;;;;;;;6.68;2.10;;;17.90;99.90;;;;;;5017674;28;20057;-71
2022/08/01 00:03:28;;;;;;;6.82;1.90;;;17.90;99.90;;;;;;5067988;28;20052;-71
2022/08/01 00:05:53;;;;;;;1.77;1.10;;;17.90;99.90;;;;;;5058436;28;20053;-71
2022/08/01 00:08:19;;;;;;;0.75;0.75;;;17.90;99.90;;;;;;5013940;28;20055;-71
2022/08/01 00:10:45;;;;;;;1.17;0.60;;;17.90;99.90;;;;;;5029941;28;20057;-71
2022/08/01 00:13:11;;;;;;;0.50;0.50;;;17.90;99.90;;;;;;5031533;28;20084;-71
2022/08/01 00:15:37;;;;;;;0.50;0.50;;;17.80;99.90;;;;;;5036430;28;20377;-71
2022/08/01 00:18:02;;;;;;;2.15;0.57;;;17.80;99.90;;;;;;5033119;28;20084;-72
2022/08/01 00:20:28;;;;;;;0.68;0.68;;;17.80;99.90;;;;;;5029853;28;20087;-72
2022/08/01 00:22:54;;;;;;;2.95;0.85;;;17.80;99.90;;;;;;5031440;28;20099;-72
2022/08/01 00:25:20;;;;;;;0.52;0.50;;;17.80;99.90;;;;;;5038364;28;20808;-71
2022/08/01 00:27:45;;;;;;;4.15;1.00;;;17.90;99.90;;;;;;5036200;28;20053;-72
2022/08/01 00:30:11;;;;;;;1.70;0.70;;;17.90;99.90;;;;;;5036902;28;20037;-72
2022/08/01 00:32:37;;;;;;;2.65;0.90;;;17.90;99.90;;;;;;5034172;28;20522;-71
2022/08/01 00:35:03;;;;;;;5.95;0.90;;;17.90;99.90;;;;;;5044894;28;20466;-72
2022/08/01 00:37:28;;;;;;;1.10;0.60;;;18.00;99.90;;;;;;5028344;28;20047;-72
2022/08/01 00:55:56;;;;;;;4.05;1.20;;;17.70;99.90;;;;;;4995378;23;20058;-63
2022/08/01 00:58:23;;;;;;;2.03;1.20;;;17.70;99.90;;;;;;5026018;28;20077;-65
2022/08/01 01:00:49;;;;;;;2.15;0.80;;;17.70;99.90;;;;;;5028449;28;20041;-65
2022/08/01 01:03:15;;;;;;;1.38;0.70;;;17.60;99.90;;;;;;5008941;28;20037;-67
2022/08/01 01:05:48;;;;;;;1.98;0.70;;;17.60;99.90;;;;;;5011450;28;20150;-61
2022/08/01 01:08:20;;;;;;;2.33;0.60;;;17.60;99.90;;;;;;5010068;28;20133;-62
2022/08/01 01:11:02;;;;;;;1.05;0.60;;;17.50;99.90;;;;;;5002359;28;20053;-67
2022/08/01 01:13:40;;;;;;;1.08;0.60;;;17.50;99.90;;;;;;4998171;28;20103;-65
2022/08/01 01:16:10;;;;;;;1.85;1.00;;;17.50;99.90;;;;;;5027980;28;20538;-68
2022/08/01 01:18:40;;;;;;;1.30;0.57;;;17.50;99.90;;;;;;5006299;28;20061;-63
2022/08/01 01:21:18;;;;;;;5.07;0.65;;;17.40;99.90;;;;;;5010030;28;20046;-65
2022/08/01 01:24:21;;;;;;;0.85;0.50;;;17.40;99.90;;;;;;5010644;28;20051;-61
2022/08/01 01:27:43;;;;;;;1.67;0.52;;;17.40;99.90;;;;;;5009698;28;20080;-62
2022/08/01 01:30:09;;;;;;;1.63;0.60;;;17.40;99.90;;;;;;4965444;28;20065;-63
2022/08/01 01:32:48;;;;;;;9.20;1.10;;;17.50;99.90;;;;;;5010145;28;20042;-61
2022/08/01 01:35:24;;;;;;;2.38;1.00;;;17.60;99.90;;;;;;5009116;28;20057;-63
2022/08/01 01:37:58;;;;;;;5.95;1.80;;;17.60;99.90;;;;;;5007811;28;20079;-65
2022/08/01 01:40:25;;;;;;;5.55;1.38;;;17.70;99.90;;;;;;5027427;28;20049;-61
2022/08/01 01:42:52;;;;;;;8.02;1.15;;;17.70;99.90;;;;;;5007857;28;20120;-60
2022/08/01 01:45:19;;;;;;;8.40;1.70;;;17.70;99.90;;;;;;5016571;28;20053;-64
2022/08/01 01:47:45;;;;;;;3.97;1.10;;;17.60;99.90;;;;;;5028211;28;20037;-60
2022/08/01 01:50:12;;;;;;;7.30;1.20;;;17.60;99.90;;;;;;4977101;28;20044;-68
2022/08/01 01:52:42;;;;;;;2.78;0.95;;;17.50;99.90;;;;;;5010617;28;20084;-64
2022/08/01 01:55:10;;;;;;;4.25;1.00;;;17.50;99.90;;;;;;5006862;28;20107;-62
2022/08/01 01:57:40;;;;;;;4.05;1.35;;;17.50;99.90;;;;;;5008115;28;20053;-63
2022/08/01 02:00:08;;;;;;;4.82;0.70;;;17.50;99.90;;;;;;5008139;28;20112;-64
2022/08/01 02:02:36;;;;;;;6.18;1.38;;;17.50;99.90;;;;;;5025449;28;20060;-68
2022/08/01 02:05:02;;;;;;;10.50;1.55;;;17.50;99.90;;;;;;5024393;28;20046;-68
2022/08/01 02:07:29;;;;;;;3.08;0.82;;;17.50;99.90;;;;;;5005325;28;20046;-63
2022/08/01 02:09:56;;;;;;;3.30;1.10;;;17.40;99.90;;;;;;5026697;28;20049;-71
2022/08/01 02:12:23;;;;;;;7.88;1.17;;;17.40;99.90;;;;;;5007760;28;20081;-66
2022/08/01 02:14:52;;;;;;;5.72;1.27;;;17.30;99.90;;;;;;5026819;28;20138;-65
2022/08/01 02:17:19;;;;;;;3.20;0.88;;;17.20;99.90;;;;;;4991641;28;20055;-65
2022/08/01 02:19:46;;;;;;;3.58;0.90;;;17.20;99.90;;;;;;4988795;28;20054;-67
2022/08/01 02:22:26;;;;;;;3.80;0.73;;;17.20;99.90;;;;;;5000002;28;20099;-61
2022/08/01 02:24:59;;;;;;;2.97;0.70;;;17.10;99.90;;;;;;4993678;28;20086;-64
2022/08/01 02:27:33;;;;;;;3.58;1.05;;;17.10;99.90;;;;;;5007740;28;20053;-61
2022/08/01 02:30:07;;;;;;;3.50;0.70;;;17.10;99.90;;;;;;5008082;28;20080;-65
2022/08/01 02:32:44;;;;;;;3.58;1.05;;;17.10;99.90;;;;;;4989384;28;20154;-63
2022/08/01 02:35:13;;;;;;;9.20;1.50;;;17.10;99.90;;;;;;5008745;28;20052;-64
2022/08/01 02:37:41;;;;;;;;;;;17.10;99.90;;;;;;5007482;28;20073;-65
2022/08/01 02:40:09;;;;;;;6.55;1.30;;;17.10;99.90;;;;;;5008691;28;19924;-66
2022/08/01 02:42:35;;;;;;;7.25;1.60;;;17.10;99.90;;;;;;5007791;28;20052;-62
2022/08/01 02:45:04;;;;;;;9.27;1.60;;;17.10;99.90;;;;;;5025245;28;20045;-67
2022/08/01 02:47:31;;;;;;;11.25;1.70;;;17.10;99.90;;;;;;5006282;28;20122;-67
2022/08/01 02:49:59;;;;;;;7.43;1.42;;;17.10;99.90;;;;;;5019834;28;20068;-65
2022/08/01 02:52:26;;;;;;;8.48;2.08;;;17.10;99.90;;;;;;4989696;28;20054;-65
2022/08/01 02:54:55;;;;;;;11.27;2.55;;;17.00;99.90;;;;;;5006699;28;20125;-60
2022/08/01 02:57:22;;;;;;;11.90;2.45;;;17.00;99.90;;;;;;5004693;28;20049;-70
2022/08/01 02:59:50;;;;;;;9.93;2.13;;;17.00;99.90;;;;;;5007097;28;20061;-69
2022/08/01 03:02:17;;;;;;;9.80;1.98;;;16.90;99.90;;;;;;5008887;28;20037;-65
2022/08/01 03:04:43;;;;;;;7.05;2.20;;;16.90;99.90;;;;;;5006850;28;20046;-64
2022/08/01 03:07:12;;;;;;;7.00;1.80;;;16.80;99.90;;;;;;5008353;28;20054;-65
2022/08/01 03:09:42;;;;;;;9.27;1.40;;;16.80;99.90;;;;;;5000589;28;20128;-70
2022/08/01 03:12:15;;;;;;;4.07;1.30;;;16.80;99.90;;;;;;5025085;28;20423;-62
2022/08/01 03:14:43;;;;;;;5.95;1.27;;;16.80;99.90;;;;;;4992095;28;20255;-64
2022/08/01 03:17:09;;;;;;;4.80;1.10;;;16.70;99.90;;;;;;4991112;28;20042;-67
2022/08/01 03:19:38;;;;;;;4.82;1.40;;;16.70;99.90;;;;;;5016859;28;20387;-66
2022/08/01 03:22:10;;;;;;;10.13;1.70;;;16.70;99.90;;;;;;5008063;28;20049;-61
2022/08/01 03:24:39;;;;;;;13.73;2.33;;;16.70;99.90;;;;;;5025024;28;20057;-62
2022/08/01 03:27:07;;;;;;;8.50;1.70;;;16.80;99.90;;;;;;5008602;28;20049;-65
2022/08/01 03:29:33;;;;;;;9.80;1.83;;;16.70;99.90;;;;;;5023537;28;20033;-65
2022/08/01 03:32:01;;;;;;;7.60;1.80;;;16.70;99.90;;;;;;5026102;28;20651;-60
2022/08/01 03:34:27;;;;;;;8.43;1.20;;;16.70;99.90;;;;;;5022071;28;20053;-66
2022/08/01 03:36:56;;;;;;;6.85;1.48;;;16.60;99.90;;;;;;5025370;28;20046;-62
2022/08/01 03:39:26;;;;;;;6.43;1.30;;;16.60;99.90;;;;;;5023060;28;20403;-68
2022/08/01 03:41:59;;;;;;;9.48;2.10;;;16.50;99.90;;;;;;5025729;28;20091;-60
2022/08/01 03:44:28;;;;;;;10.48;1.95;;;16.50;99.90;;;;;;5023743;28;20057;-60
2022/08/01 03:47:00;;;;;;;9.15;2.03;;;16.40;99.90;;;;;;5004932;28;20045;-65
2022/08/01 03:49:30;;;;;;;11.05;2.35;;;16.40;99.90;;;;;;4992333;28;20047;-63
2022/08/01 03:51:58;;;;;;;11.63;2.38;;;16.40;99.90;;;;;;5010260;28;20068;-60
2022/08/01 03:54:28;;;;;;;9.65;2.08;;;16.40;99.90;;;;;;5012042;28;20072;-64
2022/08/01 03:56:54;;;;;;;12.40;1.98;;;16.40;99.90;;;;;;5010128;28;20149;-66
2022/08/01 03:59:21;;;;;;;14.10;1.92;;;16.30;99.90;;;;;;5011136;28;20057;-60
2022/08/01 04:01:48;;;;;;;12.60;2.53;;;16.30;99.90;;;;;;5011856;28;20446;-63
2022/08/01 04:04:14;;;;;;;13.27;2.25;;;16.30;99.90;;;;;;5010749;28;20057;-67
2022/08/01 04:06:41;;;;;;;15.38;2.17;;;16.20;99.90;;;;;;5006620;28;20132;-66
2022/08/01 04:09:08;;;;;;;18.63;2.20;;;16.20;99.90;;;;;;5009558;28;20472;-63
2022/08/01 04:11:34;;;;;;;14.65;2.58;;;16.20;99.90;;;;;;5011539;28;20388;-68
2022/08/01 04:13:59;;;;;;;17.35;2.20;;;16.20;99.90;;;;;;5010483;28;20061;-64
2022/08/01 04:16:26;;;;;;;16.52;2.42;;;16.20;99.90;;;;;;5028131;28;20052;-69
2022/08/01 04:18:51;;;;;;;19.13;2.53;;;16.20;99.90;;;;;;4994450;28;20050;-59
2022/08/01 04:21:28;;;;;;;11.25;2.58;;;16.10;99.90;;;;;;5027931;28;20045;-68
2022/08/01 04:24:14;;;;;;;18.85;2.42;;;16.10;99.90;;;;;;5027092;28;20049;-66
2022/08/01 04:26:43;;;;;;;11.13;1.95;;;16.10;99.90;;;;;;5027345;28;20089;-61
2022/08/01 04:29:11;;;;;;;13.18;2.53;;;16.10;99.90;;;;;;5023188;28;20671;-70
2022/08/01 04:31:40;;;;;;;10.57;2.50;;;16.10;99.90;;;;;;5021866;28;20075;-64
2022/08/01 04:34:06;;;;;;;16.53;2.50;;;16.10;99.90;;;;;;5021753;28;20506;-61
2022/08/01 04:36:36;;;;;;;12.52;2.70;;;16.10;99.90;;;;;;5029031;28;20291;-65
2022/08/01 04:39:03;;;;;;;17.17;3.03;;;16.10;99.90;;;;;;5024637;28;20053;-64
2022/08/01 04:41:31;;;;;;;23.85;3.22;;;16.10;99.90;;;;;;5027468;28;20154;-65
2022/08/01 04:43:59;;;;;;;25.08;3.90;;;16.10;99.90;;;;;;5027114;28;20045;-62
2022/08/01 04:46:26;;;;;;;19.65;3.22;;;16.10;99.90;;;;;;5011033;28;20404;-65
2022/08/01 04:48:54;;;;;;;15.95;2.63;;;16.10;99.90;;;;;;5009442;28;20054;-62
2022/08/01 04:51:22;;;;;;;18.92;2.50;;;16.10;99.90;;;;;;5009888;28;20058;-65
2022/08/01 04:53:50;;;;;;;12.90;3.08;;;16.10;99.90;;;;;;5028292;28;20045;-69
2022/08/01 04:56:17;;;;;;;17.33;2.70;;;16.20;99.90;;;;;;5009531;28;20095;-64
2022/08/01 04:58:44;;;;;;;14.95;2.63;;;16.20;99.90;;;;;;5028472;28;20045;-61
2022/08/01 05:01:10;;;;;;;10.13;2.35;;;16.20;99.90;;;;;;5024276;28;20064;-63
2022/08/01 05:03:37;;;;;;;19.75;3.05;;;16.20;99.90;;;;;;5010386;28;20408;-60
2022/08/01 05:06:03;;;;;;;16.38;3.03;;;16.30;99.90;;;;;;5026887;28;20037;-63
2022/08/01 05:08:28;;;;;;;10.55;2.53;;;16.40;99.90;;;;;;5028040;28;20052;-63
2022/08/01 05:10:54;;;;;;;16.50;2.88;;;16.40;99.90;;;;;;5008226;28;20518;-63
2022/08/01 05:13:20;;;;;;;20.75;2.75;;;16.40;99.90;;;;;;5027275;28;20041;-60
2022/08/01 05:15:45;;;;;;;15.85;2.60;;;16.40;99.90;;;;;;5028407;28;20404;-69
2022/08/01 05:18:11;;;;;;;17.17;2.85;;;16.50;99.90;;;;;;5026215;28;20478;-64
2022/08/01 05:20:37;;;;;;;16.23;2.90;;;16.50;99.90;;;;;;5026564;28;20050;-64
2022/08/01 05:23:04;;;;;;;18.13;3.03;;;16.60;99.90;;;;;;5002038;28;20046;-64
2022/08/01 05:25:30;;;;;;;11.75;2.25;;;16.60;99.90;;;;;;5010638;28;20391;-68
2022/08/01 05:27:56;;;;;;;11.48;2.10;;;16.60;99.90;;;;;;5009231;28;20052;-58
2022/08/01 05:30:21;;;;;;;19.13;2.90;;;16.70;99.90;;;;;;5009435;28;20124;-60
2022/08/01 05:32:47;;;;;;;13.45;2.10;;;16.70;99.90;;;;;;5026944;28;20041;-64
2022/08/01 05:35:13;;;;;;;13.00;2.47;;;16.80;99.90;;;;;;5008301;28;20053;-64
2022/08/01 05:37:41;;;;;;;14.45;2.67;;;16.90;99.90;;;;;;5010121;28;20148;-66
2022/08/01 05:40:08;;;;;;;12.55;2.60;;;16.90;99.90;;;;;;5007622;28;20124;-58
2022/08/01 05:42:33;;;;;;;15.02;2.45;;;16.90;99.90;;;;;;5008867;28;20049;-66
2022/08/01 05:44:59;;;;;;;16.10;3.30;;;17.00;99.90;;;;;;5008725;28;20053;-58
2022/08/01 05:47:25;;;;;;;24.58;2.92;;;17.00;99.90;;;;;;5027380;28;20051;-58
2022/08/01 05:49:51;;;;;;;15.75;2.72;;;17.00;99.90;;;;;;5027431;28;20124;-60
2022/08/01 05:52:16;;;;;;;20.17;3.55;;;17.00;99.90;;;;;;5023235;28;20042;-59
2022/08/01 05:54:42;;;;;;;19.30;3.15;;;16.90;99.90;;;;;;5027643;28;20046;-63
2022/08/01 05:57:08;;;;;;;15.50;2.88;;;16.90;99.90;;;;;;5007534;28;20563;-64
2022/08/01 05:59:33;;;;;;;12.45;2.47;;;16.90;99.90;;;;;;5027186;28;20045;-67
2022/08/01 06:01:59;;;;;;;14.32;2.75;;;17.00;99.90;;;;;;5008090;28;20045;-60
2022/08/01 06:04:25;;;;;;;16.63;3.83;;;16.90;99.90;;;;;;5009288;28;20051;-59
2022/08/01 06:06:51;;;;;;;11.38;2.55;;;16.90;99.90;;;;;;4990308;28;20037;-60
2022/08/01 06:09:17;;;;;;;21.60;3.08;;;16.80;99.90;;;;;;5026114;28;20068;-67
2022/08/01 06:11:42;;;;;;;18.48;2.53;;;16.80;99.90;;;;;;5021899;28;20041;-62
2022/08/01 06:14:08;;;;;;;18.67;3.35;;;16.70;99.90;;;;;;5019644;28;20045;-62
2022/08/01 06:16:34;;;;;;;19.95;2.97;;;16.70;99.90;;;;;;5027264;28;20045;-68
2022/08/01 06:18:59;;;;;;;14.50;2.42;;;16.70;99.90;;;;;;5025610;28;20396;-60
2022/08/01 06:21:25;;;;;;;22.15;3.38;;;16.70;99.90;;;;;;5026984;28;20079;-67
2022/08/01 06:23:52;;;;;;;17.42;2.85;;;16.60;99.90;;;;;;5024579;28;20045;-59
2022/08/01 06:26:19;;;;;;;16.80;2.17;;;16.60;99.90;;;;;;5025867;28;20045;-65
2022/08/01 06:28:44;;;;;;;14.85;2.35;;;16.60;99.90;;;;;;4989698;28;20056;-65
2022/08/01 06:31:12;;;;;;;9.40;2.08;;;16.60;99.90;;;;;;5019795;28;20057;-63
2022/08/01 06:33:38;;;;;;;14.15;2.20;;;16.60;99.90;;;;;;5024777;28;20377;-68
2022/08/01 06:36:04;;;;;;;13.32;2.33;;;16.60;99.90;;;;;;5007824;28;20111;-65
2022/08/01 06:38:29;;;;;;;15.48;3.17;;;16.60;99.90;;;;;;5026744;28;20480;-66
2022/08/01 06:40:55;;;;;;;13.40;2.17;;;16.60;99.90;;;;;;5025653;28;20037;-63
2022/08/01 06:43:21;;;;;;;16.73;2.20;;;16.60;99.90;;;;;;5005388;28;20042;-58
2022/08/01 06:45:47;;;;;;;18.75;2.42;;;16.70;99.90;;;;;;5026516;28;20049;-58
2022/08/01 06:48:14;;;;;;;10.60;1.95;;;16.70;99.90;;;;;;5007692;28;20049;-63
2022/08/01 06:50:40;;;;;;;17.25;2.85;;;16.70;99.90;;;;;;5008877;28;20448;-62
2022/08/01 06:53:06;;;;;;;15.23;1.95;;;16.80;99.90;;;;;;5024840;28;20092;-67
2022/08/01 06:55:31;;;;;;;12.75;2.50;;;16.70;99.90;;;;;;5025325;28;20033;-58
2022/08/01 06:57:57;;;;;;;15.05;2.30;;;16.70;99.90;;;;;;5025688;28;20058;-59
2022/08/01 07:00:24;;;;;;;19.95;2.22;;;16.70;99.90;;;;;;5025931;28;20069;-59
2022/08/01 07:02:52;;;;;;;13.82;2.03;;;16.80;99.90;;;;;;5025912;28;20103;-62
2022/08/01 07:05:17;;;;;;;11.88;1.98;;;16.80;99.90;;;;;;5024398;28;20057;-68
2022/08/01 07:07:43;;;;;;;15.07;2.13;;;16.70;99.90;;;;;;5008703;28;20042;-62
2022/08/01 07:10:10;;;;;;;9.90;1.80;;;16.70;99.90;;;;;;5023959;28;20060;-69
2022/08/01 07:12:37;;;;;;;11.38;2.30;;;16.60;99.90;;;;;;5025554;28;20484;-60
2022/08/01 07:15:07;;;;;;;9.45;2.38;;;16.60;99.90;;;;;;5006811;28;20076;-66
2022/08/01 07:17:40;;;;;;;12.02;2.17;;;16.60;99.90;;;;;;5008216;28;20511;-66
2022/08/01 07:20:11;;;;;;;11.52;2.03;;;16.60;99.90;;;;;;5025454;28;20080;-58
2022/08/01 07:22:37;;;;;;;16.30;1.95;;;16.70;99.90;;;;;;5004357;28;20049;-64
2022/08/01 07:25:05;;;;;;;13.48;2.60;;;16.80;99.90;;;;;;5006473;28;20064;-58
2022/08/01 07:27:31;;;;;;;13.75;2.60;;;16.90;99.90;;;;;;5029087;28;20447;-61
2022/08/01 07:29:57;;;;;;;21.05;1.85;;;17.10;99.90;;;;;;5030264;28;20050;-64
2022/08/01 07:32:23;;;;;;;15.35;2.88;;;17.50;99.90;;;;;;5028418;28;20534;-58
2022/08/01 07:34:49;;;;;;;14.02;2.35;;;17.70;99.90;;;;;;5012153;28;20073;-59
2022/08/01 07:37:14;;;;;;;13.35;1.95;;;17.80;99.90;;;;;;5026510;28;20076;-62
2022/08/01 07:39:40;;;;;;;14.40;2.05;;;17.80;99.90;;;;;;5029521;28;20075;-63
2022/08/01 07:42:06;;;;;;;9.18;2.10;;;17.80;99.90;;;;;;4995619;28;20052;-64
2022/08/01 07:44:32;;;;;;;9.63;2.03;;;17.90;99.90;;;;;;5010343;28;20042;-57
2022/08/01 07:46:57;;;;;;;17.88;2.13;;;17.90;99.90;;;;;;5028745;28;20037;-61
2022/08/01 07:49:23;;;;;;;7.68;1.70;;;18.20;99.90;;;;;;4993846;28;20280;-62
2022/08/01 07:51:49;;;;;;;16.75;2.50;;;18.40;99.90;;;;;;5029785;28;20048;-67
2022/08/01 07:54:14;;;;;;;22.50;2.70;;;18.50;99.90;;;;;;5010128;28;20419;-66
2022/08/01 07:56:41;;;;;;;10.40;1.45;;;18.20;99.90;;;;;;5026247;28;20057;-68
2022/08/01 07:59:07;;;;;;;9.65;1.90;;;18.00;99.90;;;;;;5028347;28;20124;-57
2022/08/01 08:01:33;;;;;;;11.48;2.03;;;18.10;99.90;;;;;;5028307;28;20132;-64
2022/08/01 08:03:58;;;;;;;12.82;2.10;;;18.30;99.90;;;;;;5028932;28;20038;-61
2022/08/01 08:06:24;;;;;;;10.32;2.30;;;18.50;99.90;;;;;;5027082;28;20048;-59
2022/08/01 08:08:50;;;;;;;10.98;2.22;;;18.60;99.90;;;;;;5028989;28;20087;-67
2022/08/01 08:11:16;;;;;;;14.23;1.90;;;18.80;99.90;;;;;;4990724;28;20086;-64
2022/08/01 08:13:41;;;;;;;7.40;1.67;;;19.00;99.90;;;;;;5009673;28;20045;-63
2022/08/01 08:16:07;;;;;;;16.02;2.00;;;18.90;93.20;;;;;;5023446;28;20118;-65
2022/08/01 08:18:33;;;;;;;9.63;2.25;;;18.90;99.90;;;;;;5027344;28;20041;-66
2022/08/01 08:20:58;;;;;;;9.90;2.13;;;19.10;99.90;;;;;;5026878;28;20125;-58
2022/08/01 08:26:08;;;;;;;12.50;2.42;;;19.20;98.30;;;;;;5026754;28;20042;-61
2022/08/01 08:28:34;;;;;;;11.45;2.05;;;19.30;99.90;;;;;;5014262;28;20477;-61
2022/08/01 08:31:00;;;;;;;9.77;1.73;;;19.00;99.90;;;;;;5026606;28;20053;-65
2022/08/01 08:33:25;;;;;;;9.40;1.80;;;18.70;99.90;;;;;;5025353;28;20483;-61
2022/08/01 08:35:51;;;;;;;6.53;1.90;;;18.40;98.40;;;;;;5026171;28;20041;-65
2022/08/01 08:38:17;;;;;;;5.93;1.52;;;18.40;97.40;;;;;;5016376;28;20049;-65
2022/08/01 08:40:42;;;;;;;8.68;1.65;;;18.60;99.20;;;;;;5008393;28;20049;-63
2022/08/01 08:43:15;;;;;;;7.00;1.77;;;18.70;98.00;;;;;;5009957;28;20049;-61
2022/08/01 08:45:42;;;;;;;12.63;2.35;;;18.80;98.60;;;;;;5025632;28;20062;-68
2022/08/01 08:48:08;;;;;;;16.35;2.00;;;18.80;98.40;;;;;;5021361;28;20041;-68
2022/08/01 08:50:36;;;;;;;15.80;2.10;;;18.90;99.90;;;;;;5009221;28;20053;-63
2022/08/01 08:53:02;;;;;;;20.73;2.45;;;18.90;95.30;;;;;;5010554;28;20526;-61
2022/08/01 08:55:29;;;;;;;16.73;2.17;;;18.70;91.20;;;;;;5027734;28;20052;-54
2022/08/01 08:57:56;;;;;;;6.68;1.52;;;18.80;97.20;;;;;;5008702;28;20046;-62
2022/08/01 09:00:22;;;;;;;11.40;2.13;;;18.60;95.00;;;;;;5006005;28;20038;-52
2022/08/01 09:02:55;;;;;;;12.18;2.05;;;18.80;98.00;;;;;;5008643;28;20043;-60
2022/08/01 09:05:25;;;;;;;7.07;1.80;;;18.90;97.90;;;;;;5027302;28;20344;-59
2022/08/01 09:07:52;;;;;;;11.20;1.90;;;18.90;96.90;;;;;;5009279;28;20056;-65
2022/08/01 09:10:18;;;;;;;8.38;1.67;;;19.00;95.80;;;;;;5025842;28;20091;-61
2022/08/01 09:13:14;;;;;;;10.15;1.63;;;19.00;94.90;;;;;;5025039;28;20081;-52
2022/08/01 09:15:54;;;;;;;11.85;2.05;;;19.00;95.70;;;;;;5026890;28;20053;-64
2022/08/01 09:18:29;;;;;;;;;;;19.00;99.60;;;;;;5026316;28;20049;-60
2022/08/01 09:21:14;;;;;;;10.75;1.77;;;19.20;99.10;;;;;;5017734;28;20018;-66
2022/08/01 09:23:51;;;;;;;14.05;2.20;;;19.20;93.00;;;;;;5009652;28;20049;-60
2022/08/01 09:26:32;;;;;;;4.10;1.08;;;19.30;94.90;;;;;;5025826;28;20248;-64
2022/08/01 09:29:00;;;;;;;9.43;1.75;;;19.40;93.60;;;;;;5026039;28;20549;-58
2022/08/01 09:31:28;;;;;;;8.13;1.48;;;19.40;93.50;;;;;;5024334;28;20049;-62
2022/08/01 09:33:57;;;;;;;14.23;2.13;;;19.20;86.10;;;;;;5026448;28;20041;-60
2022/08/01 09:36:57;;;;;;;6.40;1.83;;;19.10;93.60;;;;;;5009007;28;20284;-60
2022/08/01 09:39:26;;;;;;;4.00;1.50;;;19.00;93.60;;;;;;5009111;28;20045;-61
2022/08/01 09:41:57;;;;;;;9.85;1.67;;;19.10;94.60;;;;;;5021429;28;20129;-68
2022/08/01 09:44:43;;;;;;;8.32;1.75;;;19.20;90.40;;;;;;5026642;28;20110;-56
2022/08/01 09:47:09;;;;;;;10.70;1.38;;;19.20;93.90;;;;;;5008724;28;20400;-57
2022/08/01 09:49:37;;;;;;;17.25;2.58;;;19.30;92.00;;;;;;5026129;28;20144;-60
2022/08/01 09:52:29;;;;;;;12.63;2.25;;;19.20;94.50;;;;;;5001568;28;20038;-58
2022/08/01 09:55:05;;;;;;;6.72;1.60;;;19.10;87.80;;;;;;5004957;28;20081;-60
2022/08/01 09:57:32;;;;;;;11.68;2.10;;;19.00;89.50;;;;;;5025954;28;20041;-59
2022/08/01 10:00:04;;;;;;;12.32;1.92;;;19.00;99.90;;;;;;5023142;28;20216;-57
2022/08/01 10:02:33;;;;;;;10.98;2.00;;;18.80;93.10;;;;;;5015952;28;20044;-64
2022/08/01 10:05:01;;;;;;;8.00;1.48;;;18.90;94.30;;;;;;5020787;28;20463;-57
2022/08/01 10:07:27;;;;;;;14.40;1.90;;;18.90;91.20;;;;;;4989140;28;20454;-66
2022/08/01 10:09:53;;;;;;;8.10;1.50;;;18.90;92.90;;;;;;5025229;28;20160;-66
2022/08/01 10:12:23;;;;;;;9.98;2.13;;;18.90;90.40;;;;;;5021683;28;20046;-68
2022/08/01 10:14:51;;;;;;;13.18;2.10;;;19.00;95.70;;;;;;5007250;28;20386;-61
2022/08/01 10:17:19;;;;;;;13.13;2.20;;;19.00;94.90;;;;;;5022920;28;20392;-69
2022/08/01 10:19:46;;;;;;;7.03;1.95;;;19.00;97.20;;;;;;5006092;28;20466;-67
2022/08/01 10:22:16;;;;;;;9.63;1.98;;;19.00;93.60;;;;;;5006089;28;20516;-61
2022/08/01 10:24:47;;;;;;;9.85;1.58;;;19.00;96.40;;;;;;5022368;28;20041;-65
2022/08/01 10:27:16;;;;;;;12.90;2.00;;;19.00;90.90;;;;;;4992860;28;20081;-62
2022/08/01 10:29:56;;;;;;;10.48;1.40;;;18.80;92.70;;;;;;5007086;28;20104;-62
2022/08/01 10:32:22;;;;;;;8.18;1.48;;;18.70;94.20;;;;;;5020304;28;20479;-58
2022/08/01 10:34:49;;;;;;;10.30;1.98;;;18.60;90.90;;;;;;5021374;28;20048;-58
2022/08/01 10:37:17;;;;;;;9.10;1.75;;;18.60;94.40;;;;;;5006957;28;20543;-64
2022/08/01 10:39:43;;;;;;;8.00;1.65;;;18.70;93.20;;;;;;5007262;28;20083;-66
2022/08/01 10:42:11;;;;;;;8.93;2.15;;;18.80;94.40;;;;;;5025049;28;20092;-62
2022/08/01 10:44:37;;;;;;;8.75;1.83;;;18.90;91.40;;;;;;4991565;28;20124;-62
2022/08/01 10:47:12;;;;;;;9.85;1.50;;;18.90;88.50;;;;;;5024602;28;20049;-61
2022/08/01 10:50:02;;;;;;;6.93;1.58;;;19.00;90.10;;;;;;5004874;28;20042;-63
2022/08/01 10:52:27;;;;;;;11.80;1.70;;;19.00;93.00;;;;;;5019660;28;20504;-60
2022/08/01 10:55:05;;;;;;;5.88;1.67;;;19.10;83.40;;;;;;5008276;28;20053;-63
2022/08/01 10:57:47;;;;;;;15.55;2.05;;;19.10;78.70;;;;;;5023127;28;20481;-66
2022/08/01 11:00:21;;;;;;;7.50;1.73;;;19.00;89.50;;;;;;5026422;28;20041;-63
2022/08/01 11:03:03;;;;;;;11.68;1.98;;;19.10;90.50;;;;;;5029970;28;20053;-63
2022/08/01 11:05:31;;;;;;;13.27;1.80;;;19.10;75.20;;;;;;5027600;28;20060;-62
2022/08/01 11:08:02;;;;;;;10.38;1.83;;;19.20;92.30;;;;;;5028858;28;20108;-65
2022/08/01 11:10:37;;;;;;;8.98;1.60;;;19.30;88.20;;;;;;5011549;28;20045;-58
2022/08/01 11:13:07;;;;;;;7.15;1.33;;;19.20;70.50;;;;;;5010857;28;20042;-62
2022/08/01 11:15:33;;;;;;;;;;;19.10;72.70;;;;;;5027878;28;20053;-69
2022/08/01 11:18:01;;;;;;;10.43;1.42;;;19.10;86.50;;;;;;5029443;28;20407;-59
2022/08/01 11:20:33;;;;;;;8.25;1.25;;;19.00;82.40;;;;;;5028435;28;20045;-68
2022/08/01 11:23:01;;;;;;;9.05;1.55;;;18.90;80.00;;;;;;5029863;28;20763;-64
2022/08/01 11:25:48;;;;;;;2.78;1.20;;;18.80;86.10;;;;;;5009797;28;20033;-59
2022/08/01 11:28:32;;;;;;;4.63;1.08;;;18.90;79.10;;;;;;5028271;28;20045;-65
2022/08/01 11:31:07;;;;;;;4.85;1.33;;;18.80;86.90;;;;;;5029907;28;20064;-64
2022/08/01 11:33:42;;;;;;;10.25;2.00;;;18.80;86.30;;;;;;5010618;28;20045;-58
2022/08/01 11:36:11;;;;;;;5.18;1.15;;;18.70;89.70;;;;;;5011266;28;20793;-57
2022/08/01 11:38:38;;;;;;;6.25;1.30;;;18.70;75.10;;;;;;5027541;28;20049;-61
2022/08/01 11:41:15;;;;;;;6.40;1.30;;;18.80;89.60;;;;;;5007562;28;20053;-66
2022/08/01 11:44:01;;;;;;;12.52;1.50;;;18.80;77.90;;;;;;5026199;28;20678;-64
2022/08/01 11:46:58;;;;;;;6.60;1.58;;;18.70;76.40;;;;;;5023842;28;20456;-60
2022/08/01 11:49:25;;;;;;;5.78;1.52;;;18.70;90.30;;;;;;5006536;28;20431;-63
2022/08/01 11:52:23;;;;;;;5.70;1.20;;;18.60;90.50;;;;;;5015272;28;20100;-63
2022/08/01 11:54:50;;;;;;;4.85;1.13;;;18.60;72.80;;;;;;4994722;28;20057;-64
2022/08/01 11:57:33;;;;;;;4.82;1.40;;;18.60;76.60;;;;;;5024848;28;20060;-61
2022/08/01 12:00:01;;;;;;;7.57;1.42;;;18.60;70.30;;;;;;5025646;28;20543;-65
2022/08/01 12:02:33;;;;;;;6.43;1.33;;;18.60;67.30;;;;;;5025343;28;20175;-68
2022/08/01 12:05:14;;;;;;;10.93;1.73;;;18.50;79.50;;;;;;5025854;28;20149;-64
2022/08/01 12:07:41;;;;;;;4.05;1.23;;;18.50;85.60;;;;;;5023952;28;20138;-63
2022/08/01 12:10:12;;;;;;;5.78;1.30;;;18.70;81.40;;;;;;5009139;28;20050;-62
2022/08/01 12:12:48;;;;;;;5.65;1.05;;;18.70;80.30;;;;;;5007558;28;20061;-69
2022/08/01 12:15:14;;;;;;;8.18;1.48;;;18.60;77.90;;;;;;5027120;28;20045;-60
2022/08/01 12:17:48;;;;;;;10.00;1.65;;;18.60;75.20;;;;;;5008751;28;20053;-65
2022/08/01 12:20:19;;;;;;;6.50;1.33;;;18.60;72.50;;;;;;5028808;28;20045;-68
2022/08/01 12:22:45;;;;;;;4.85;1.15;;;18.60;72.70;;;;;;5027845;28;20046;-63
2022/08/01 12:25:12;;;;;;;9.05;1.42;;;18.70;77.50;;;;;;5027243;28;20060;-65
2022/08/01 12:27:39;;;;;;;7.30;1.48;;;18.70;76.10;;;;;;5027442;28;20049;-61
2022/08/01 12:30:10;;;;;;;6.90;1.45;;;18.70;84.80;;;;;;5026126;28;20037;-59
2022/08/01 12:32:39;;;;;;;6.75;1.50;;;18.70;61.40;;;;;;5027827;28;20163;-58
2022/08/01 12:35:22;;;;;;;8.30;1.63;;;18.70;76.20;;;;;;5008749;28;20061;-60
2022/08/01 12:37:50;;;;;;;10.75;1.75;;;18.70;75.90;;;;;;5009575;28;20400;-65
2022/08/01 12:40:20;;;;;;;5.00;1.27;;;18.80;69.60;;;;;;5018263;28;20361;-60
2022/08/01 12:42:49;;;;;;;6.55;1.35;;;18.90;75.90;;;;;;5027248;28;20045;-63
2022/08/01 12:45:21;;;;;;;6.47;1.20;;;18.80;69.90;;;;;;5010706;28;20388;-59
2022/08/01 12:47:48;;;;;;;8.38;1.38;;;18.70;66.50;;;;;;5009484;28;20053;-64
2022/08/01 12:50:18;;;;;;;4.72;1.17;;;18.60;61.70;;;;;;5005319;28;20037;-68
2022/08/01 12:52:44;;;;;;;10.90;1.45;;;18.60;86.50;;;;;;5027720;28;20103;-54
2022/08/01 12:55:17;;;;;;;7.43;1.13;;;18.60;60.60;;;;;;5027754;28;20056;-67
2022/08/01 12:57:52;;;;;;;8.65;1.35;;;18.60;74.10;;;;;;5010645;28;20466;-54
2022/08/01 13:00:24;;;;;;;5.53;1.40;;;18.60;78.20;;;;;;5025342;28;20042;-61
2022/08/01 13:03:00;;;;;;;5.13;1.40;;;18.60;67.50;;;;;;5027937;28;20140;-59
2022/08/01 13:05:26;;;;;;;4.80;1.25;;;18.60;67.50;;;;;;5026980;28;20389;-62
2022/08/01 13:07:53;;;;;;;8.93;1.58;;;18.50;57.20;;;;;;5027861;28;20511;-57
2022/08/01 13:10:30;;;;;;;4.10;1.10;;;18.40;58.60;;;;;;5010034;28;20072;-62
2022/08/01 13:12:58;;;;;;;6.90;0.93;;;18.50;72.60;;;;;;5025236;28;20037;-58